createdAt,value
2023-02-19T00:01:48.515Z,11.50
2023-02-19T00:04:18.876Z,11.50
2023-02-19T00:06:49.822Z,11.50
2023-02-19T00:09:19.044Z,11.60
2023-02-19T00:11:47.730Z,11.50
2023-02-19T00:14:18.266Z,11.60
2023-02-19T00:16:45.581Z,11.60
2023-02-19T00:19:15.211Z,11.50
2023-02-19T00:21:44.962Z,11.50
2023-02-19T00:24:13.869Z,11.50
2023-02-19T00:26:47.483Z,11.50
2023-02-19T00:29:21.608Z,11.60
2023-02-19T00:31:49.258Z,11.50
2023-02-19T00:34:16.756Z,11.50
2023-02-19T00:36:46.443Z,11.50
2023-02-19T00:39:16.263Z,11.60
2023-02-19T00:41:44.519Z,11.60
2023-02-19T00:44:13.252Z,11.60
2023-02-19T00:46:46.042Z,11.60
2023-02-19T00:49:19.848Z,11.60
2023-02-19T00:51:47.771Z,11.60
2023-02-19T00:54:15.911Z,11.60
2023-02-19T00:56:45.821Z,11.60
2023-02-19T00:59:13.381Z,11.50
2023-02-19T01:01:41.258Z,11.50
2023-02-19T01:04:08.550Z,11.40
2023-02-19T01:06:35.920Z,11.50
2023-02-19T01:09:05.085Z,11.50
2023-02-19T01:11:35.341Z,11.50
2023-02-19T01:14:03.590Z,11.50
2023-02-19T01:16:31.155Z,11.50
2023-02-19T01:19:00.998Z,11.50
2023-02-19T01:21:31.402Z,11.40
2023-02-19T01:24:01.415Z,11.40
2023-02-19T01:26:31.821Z,11.50
2023-02-19T01:29:02.585Z,11.40
2023-02-19T01:31:35.021Z,11.40
2023-02-19T01:34:03.920Z,11.40
2023-02-19T01:36:34.016Z,11.40
2023-02-19T01:39:05.684Z,11.40
2023-02-19T01:41:39.564Z,11.40
2023-02-19T01:44:15.920Z,11.40
2023-02-19T01:46:46.474Z,11.40
2023-02-19T01:49:22.722Z,11.30
2023-02-19T01:51:56.990Z,11.30
2023-02-19T01:54:28.897Z,11.40
2023-02-19T01:56:59.318Z,11.30
2023-02-19T01:59:26.729Z,11.30
2023-02-19T02:01:54.012Z,11.30
2023-02-19T02:04:21.296Z,11.40
2023-02-19T02:06:54.876Z,11.30
2023-02-19T02:09:46.542Z,11.30
2023-02-19T02:12:14.031Z,11.30
2023-02-19T02:14:47.057Z,11.30
2023-02-19T02:17:39.124Z,11.30
2023-02-19T02:20:15.240Z,11.30
2023-02-19T02:23:16.632Z,11.30
2023-02-19T02:26:25.749Z,11.30
2023-02-19T02:29:29.803Z,11.30
2023-02-19T02:32:09.497Z,11.30
2023-02-19T02:34:51.676Z,11.40
2023-02-19T02:37:19.131Z,11.40
2023-02-19T02:39:47.756Z,11.40
2023-02-19T02:42:29.542Z,11.40
2023-02-19T02:45:16.807Z,11.30
2023-02-19T02:47:53.483Z,11.30
2023-02-19T02:50:28.838Z,11.30
2023-02-19T02:53:20.746Z,11.20
2023-02-19T02:55:51.835Z,11.30
2023-02-19T02:58:22.417Z,11.20
2023-02-19T03:01:15.076Z,11.20
2023-02-19T03:03:48.110Z,11.30
2023-02-19T03:06:18.529Z,11.20
2023-02-19T03:09:00.731Z,11.20
2023-02-19T03:11:49.595Z,11.20
2023-02-19T03:14:40.263Z,11.10
2023-02-19T03:17:40.603Z,11.10
2023-02-19T03:20:13.039Z,11.20
2023-02-19T03:22:44.471Z,11.20
2023-02-19T03:25:40.513Z,11.20
2023-02-19T03:28:12.537Z,11.10
2023-02-19T03:30:54.507Z,11.20
2023-02-19T03:33:29.986Z,11.20
2023-02-19T03:36:01.046Z,11.20
2023-02-19T03:38:31.990Z,11.20
2023-02-19T03:41:23.328Z,11.20
2023-02-19T03:44:12.283Z,11.20
2023-02-19T03:46:55.174Z,11.20
2023-02-19T03:49:33.312Z,11.30
2023-02-19T03:52:09.183Z,11.30
2023-02-19T03:54:52.979Z,11.30
2023-02-19T03:57:25.079Z,11.30
2023-02-19T04:00:04.155Z,11.30
2023-02-19T04:03:06.857Z,11.30
2023-02-19T04:05:40.013Z,11.20
2023-02-19T04:08:14.006Z,11.20
2023-02-19T04:10:44.179Z,11.20
2023-02-19T04:13:26.792Z,11.30
2023-02-19T04:15:57.091Z,11.20
2023-02-19T04:18:31.376Z,11.10
2023-02-19T04:21:00.804Z,11.10
2023-02-19T04:23:38.676Z,11.10
2023-02-19T04:26:09.438Z,11.10
2023-02-19T04:28:38.438Z,11.10
2023-02-19T04:31:05.969Z,11.10
2023-02-19T04:33:33.199Z,11.20
2023-02-19T04:36:00.601Z,11.20
2023-02-19T04:38:27.836Z,11.20
2023-02-19T04:40:57.744Z,11.20
2023-02-19T04:43:27.218Z,11.20
2023-02-19T04:45:56.632Z,11.20
2023-02-19T04:48:23.870Z,11.10
2023-02-19T04:50:51.167Z,11.10
2023-02-19T04:53:20.935Z,11.20
2023-02-19T04:55:48.510Z,11.10
2023-02-19T04:58:15.757Z,11.20
2023-02-19T05:00:43.021Z,11.20
2023-02-19T05:03:12.715Z,11.20
2023-02-19T05:05:42.341Z,11.20
2023-02-19T05:08:09.569Z,11.10
2023-02-19T05:10:38.916Z,11.10
2023-02-19T05:13:06.154Z,11.10
2023-02-19T05:15:33.410Z,11.10
2023-02-19T05:18:00.730Z,11.00
2023-02-19T05:20:28.012Z,11.00
2023-02-19T05:22:55.431Z,10.90
2023-02-19T05:25:24.966Z,10.90
2023-02-19T05:28:12.234Z,10.90
2023-02-19T05:30:41.741Z,10.90
2023-02-19T05:33:09.057Z,10.90
2023-02-19T05:35:41.825Z,10.90
2023-02-19T05:38:09.804Z,10.90
2023-02-19T05:40:39.839Z,11.00
2023-02-19T05:43:08.213Z,11.00
2023-02-19T05:45:36.411Z,10.90
2023-02-19T05:48:07.070Z,10.90
2023-02-19T05:50:39.901Z,10.90
2023-02-19T05:53:09.403Z,10.90
2023-02-19T05:55:37.002Z,10.90
2023-02-19T05:58:04.280Z,11.00
2023-02-19T06:00:36.035Z,11.00
2023-02-19T06:03:03.445Z,10.90
2023-02-19T06:05:30.718Z,10.90
2023-02-19T06:07:58.031Z,10.90
2023-02-19T06:10:25.303Z,10.90
2023-02-19T06:12:55.755Z,10.90
2023-02-19T06:15:25.171Z,10.90
2023-02-19T06:17:52.393Z,11.00
2023-02-19T06:20:22.220Z,11.00
2023-02-19T06:22:54.464Z,11.00
2023-02-19T06:25:23.808Z,11.10
2023-02-19T06:27:53.594Z,11.20
2023-02-19T06:30:20.827Z,11.10
2023-02-19T06:32:48.224Z,11.20
2023-02-19T06:35:17.935Z,11.10
2023-02-19T06:37:50.081Z,11.10
2023-02-19T06:40:19.853Z,11.10
2023-02-19T06:42:47.090Z,11.10
2023-02-19T06:45:15.387Z,11.20
2023-02-19T06:47:42.686Z,11.10
2023-02-19T06:50:12.437Z,11.10
2023-02-19T06:52:39.703Z,11.10
2023-02-19T06:55:06.962Z,11.00
2023-02-19T06:57:34.226Z,11.00
2023-02-19T07:00:01.439Z,11.10
2023-02-19T07:02:28.757Z,11.10
2023-02-19T07:04:58.459Z,11.10
2023-02-19T07:07:25.645Z,11.10
2023-02-19T07:09:52.875Z,11.00
2023-02-19T07:12:27.097Z,11.10
2023-02-19T07:14:56.828Z,11.10
2023-02-19T07:17:26.546Z,11.10
2023-02-19T07:19:53.868Z,11.00
2023-02-19T07:22:21.172Z,11.00
2023-02-19T07:24:53.498Z,11.00
2023-02-19T07:27:20.753Z,11.00
2023-02-19T07:29:50.602Z,11.00
2023-02-19T07:32:17.908Z,11.00
2023-02-19T07:34:47.414Z,11.00
2023-02-19T07:37:14.647Z,10.90
2023-02-19T07:39:41.905Z,10.90
2023-02-19T07:42:09.147Z,11.00
2023-02-19T07:44:36.374Z,11.00
2023-02-19T07:47:03.661Z,11.10
2023-02-19T07:49:30.984Z,11.10
2023-02-19T07:52:02.963Z,11.10
2023-02-19T07:54:30.253Z,11.10
2023-02-19T07:57:02.165Z,11.10
2023-02-19T07:59:31.894Z,11.00
2023-02-19T08:02:17.867Z,11.00
2023-02-19T08:04:47.714Z,10.90
2023-02-19T08:07:15.016Z,10.90
2023-02-19T08:09:42.265Z,10.80
2023-02-19T08:12:30.169Z,10.70
2023-02-19T08:14:57.904Z,10.50
2023-02-19T08:17:27.655Z,10.50
2023-02-19T08:19:57.262Z,10.50
2023-02-19T08:22:24.508Z,10.40
2023-02-19T08:24:54.128Z,10.50
2023-02-19T08:27:23.665Z,10.50
2023-02-19T08:29:53.374Z,10.60
2023-02-19T08:32:20.673Z,10.50
2023-02-19T08:34:47.910Z,10.50
2023-02-19T08:37:17.296Z,10.50
2023-02-19T08:39:44.523Z,10.60
2023-02-19T08:42:13.971Z,10.50
2023-02-19T08:44:43.644Z,10.60
2023-02-19T08:47:13.345Z,10.60
2023-02-19T08:49:40.644Z,10.60
2023-02-19T08:52:10.075Z,10.40
2023-02-19T08:54:37.403Z,10.50
2023-02-19T08:57:05.221Z,10.60
2023-02-19T08:59:34.946Z,10.70
2023-02-19T09:02:02.229Z,10.70
2023-02-19T09:04:34.138Z,10.70
2023-02-19T09:07:01.447Z,10.70
2023-02-19T09:09:35.646Z,10.70
2023-02-19T09:12:08.242Z,10.70
2023-02-19T09:14:35.935Z,10.70
2023-02-19T09:17:05.413Z,10.80
2023-02-19T09:19:33.385Z,10.90
2023-02-19T09:22:00.980Z,10.90
2023-02-19T09:24:32.026Z,11.00
2023-02-19T09:26:59.442Z,11.00
2023-02-19T09:29:28.185Z,11.00
2023-02-19T09:32:00.214Z,11.00
2023-02-19T09:34:28.925Z,11.10
2023-02-19T09:36:58.672Z,11.10
2023-02-19T09:39:28.168Z,11.00
2023-02-19T09:42:17.650Z,11.00
2023-02-19T09:44:49.879Z,11.10
2023-02-19T09:47:22.754Z,11.30
2023-02-19T09:49:54.626Z,11.30
2023-02-19T09:52:33.169Z,11.40
2023-02-19T09:55:16.214Z,11.50
2023-02-19T09:57:47.192Z,11.50
2023-02-19T10:00:26.239Z,11.40
2023-02-19T10:03:06.728Z,11.50
2023-02-19T10:05:38.931Z,11.50
2023-02-19T10:08:12.732Z,11.40
2023-02-19T10:10:41.487Z,11.40
2023-02-19T10:13:19.991Z,11.50
2023-02-19T10:15:56.480Z,11.40
2023-02-19T10:18:31.600Z,11.20
2023-02-19T10:20:59.011Z,11.20
2023-02-19T10:23:29.289Z,11.20
2023-02-19T10:26:01.923Z,11.30
2023-02-19T10:28:33.773Z,11.30
2023-02-19T10:31:04.218Z,11.10
2023-02-19T10:33:32.094Z,11.00
2023-02-19T10:36:03.313Z,10.90
2023-02-19T10:38:30.479Z,10.90
2023-02-19T10:41:04.790Z,11.10
2023-02-19T10:43:39.904Z,11.40
2023-02-19T10:46:16.685Z,11.50
2023-02-19T10:49:05.783Z,11.80
2023-02-19T10:51:41.563Z,12.00
2023-02-19T10:54:36.458Z,12.10
2023-02-19T10:57:15.605Z,12.20
2023-02-19T10:59:51.291Z,12.20
2023-02-19T11:02:21.322Z,12.10
2023-02-19T11:05:17.026Z,12.20
2023-02-19T11:07:53.574Z,12.20
2023-02-19T11:10:52.832Z,12.30
2023-02-19T11:13:32.425Z,12.20
2023-02-19T11:16:00.643Z,12.10
2023-02-19T11:18:30.780Z,12.10
2023-02-19T11:21:04.077Z,12.10
2023-02-19T11:23:47.272Z,12.10
2023-02-19T11:26:23.282Z,12.10
2023-02-19T11:29:04.367Z,12.00
2023-02-19T11:31:36.137Z,12.00
2023-02-19T11:34:26.148Z,12.00
2023-02-19T11:37:13.639Z,12.00
2023-02-19T11:39:46.500Z,12.10
2023-02-19T11:43:11.034Z,12.10
2023-02-19T11:45:49.591Z,12.10
2023-02-19T11:48:20.194Z,12.00
2023-02-19T11:51:03.960Z,11.80
2023-02-19T11:53:38.385Z,11.70
2023-02-19T11:56:27.940Z,11.60
2023-02-19T11:59:18.668Z,11.60
2023-02-19T12:02:14.155Z,11.50
2023-02-19T12:05:12.457Z,11.40
2023-02-19T12:08:05.729Z,11.40
2023-02-19T12:10:57.132Z,11.40
2023-02-19T12:13:39.440Z,11.40
2023-02-19T12:16:18.056Z,11.70
2023-02-19T12:19:09.836Z,11.70
2023-02-19T12:21:51.507Z,11.80
2023-02-19T12:24:46.887Z,11.70
2023-02-19T12:27:34.422Z,11.70
2023-02-19T12:30:40.619Z,11.70
2023-02-19T12:33:22.966Z,11.60
2023-02-19T12:36:00.393Z,11.60
2023-02-19T12:38:35.455Z,11.70
2023-02-19T12:41:15.616Z,11.90
2023-02-19T12:44:09.619Z,11.90
2023-02-19T12:46:42.444Z,11.80
2023-02-19T12:49:19.626Z,11.80
2023-02-19T12:51:55.206Z,11.70
2023-02-19T12:54:28.021Z,11.60
2023-02-19T12:57:01.677Z,11.50
2023-02-19T12:59:49.364Z,11.70
2023-02-19T13:02:26.693Z,11.50
2023-02-19T13:05:20.607Z,11.40
2023-02-19T13:08:02.322Z,11.40
2023-02-19T13:10:32.379Z,11.40
2023-02-19T13:13:06.358Z,11.40
2023-02-19T13:15:46.240Z,11.40
2023-02-19T13:18:27.908Z,11.40
2023-02-19T13:20:58.006Z,11.40
2023-02-19T13:23:51.453Z,11.40
2023-02-19T13:26:56.019Z,11.20
2023-02-19T13:29:42.777Z,11.20
2023-02-19T13:32:20.791Z,11.30
2023-02-19T13:34:48.063Z,11.30
2023-02-19T13:37:17.004Z,11.40
2023-02-19T13:39:55.526Z,11.30
2023-02-19T13:42:33.537Z,11.40
2023-02-19T13:45:03.176Z,11.40
2023-02-19T13:47:49.252Z,11.20
2023-02-19T13:50:28.293Z,11.30
2023-02-19T13:52:57.601Z,11.30
2023-02-19T13:55:42.765Z,11.30
2023-02-19T13:58:40.222Z,11.40
2023-02-19T14:01:13.912Z,11.50
2023-02-19T14:04:06.876Z,11.40
2023-02-19T14:07:03.096Z,11.50
2023-02-19T14:09:45.882Z,11.30
2023-02-19T14:12:15.515Z,11.30
2023-02-19T14:14:55.806Z,11.30
2023-02-19T14:17:35.438Z,11.40
2023-02-19T14:20:11.847Z,11.50
2023-02-19T14:23:01.303Z,11.40
2023-02-19T14:25:34.315Z,11.20
2023-02-19T14:28:17.361Z,11.00
2023-02-19T14:30:50.567Z,10.90
2023-02-19T14:33:26.300Z,10.90
2023-02-19T14:36:18.386Z,10.90
2023-02-19T14:38:53.434Z,11.00
2023-02-19T14:41:23.379Z,11.10
2023-02-19T14:43:56.073Z,10.90
2023-02-19T14:46:41.449Z,10.90
2023-02-19T14:49:42.505Z,10.90
2023-02-19T14:52:33.675Z,10.90
2023-02-19T14:55:04.160Z,10.80
2023-02-19T14:57:35.762Z,10.80
2023-02-19T15:00:24.571Z,10.80
2023-02-19T15:02:56.752Z,10.60
2023-02-19T15:05:29.954Z,10.60
2023-02-19T15:08:03.203Z,10.60
2023-02-19T15:10:32.386Z,10.70
2023-02-19T15:13:06.029Z,10.60
2023-02-19T15:15:37.479Z,10.60
2023-02-19T15:18:05.636Z,10.60
2023-02-19T15:20:37.813Z,10.60
2023-02-19T15:23:07.469Z,10.70
2023-02-19T15:25:37.891Z,10.90
2023-02-19T15:28:21.600Z,11.00
2023-02-19T15:30:51.278Z,11.00
2023-02-19T15:33:20.373Z,11.20
2023-02-19T15:35:53.373Z,11.10
2023-02-19T15:38:20.789Z,10.80
2023-02-19T15:40:49.402Z,10.80
2023-02-19T15:43:30.348Z,10.80
2023-02-19T15:46:14.786Z,10.80
2023-02-19T15:49:17.320Z,10.80
2023-02-19T15:51:56.644Z,10.70
2023-02-19T15:54:32.484Z,10.70
2023-02-19T15:57:05.732Z,10.80
2023-02-19T15:59:36.484Z,10.70
2023-02-19T16:02:04.838Z,10.60
2023-02-19T16:04:34.340Z,10.60
2023-02-19T16:07:03.712Z,10.60
2023-02-19T16:09:38.312Z,10.60
2023-02-19T16:12:25.230Z,10.40
2023-02-19T16:14:53.817Z,10.30
2023-02-19T16:17:23.172Z,10.20
2023-02-19T16:20:02.067Z,10.20
2023-02-19T16:22:32.014Z,10.20
2023-02-19T16:25:06.648Z,10.30
2023-02-19T16:27:35.871Z,10.30
2023-02-19T16:30:38.392Z,10.20
2023-02-19T16:33:28.669Z,10.10
2023-02-19T16:35:58.892Z,10.00
2023-02-19T16:38:26.289Z,10.00
2023-02-19T16:41:06.749Z,10.10
2023-02-19T16:43:44.766Z,10.10
2023-02-19T16:46:13.680Z,10.00
2023-02-19T16:48:43.525Z,10.00
2023-02-19T16:51:21.758Z,10.00
2023-02-19T16:53:49.001Z,10.00
2023-02-19T16:56:21.161Z,10.00
2023-02-19T16:58:51.617Z,10.00
2023-02-19T17:01:19.092Z,9.90
2023-02-19T17:03:49.202Z,9.90
2023-02-19T17:06:16.860Z,10.00
2023-02-19T17:08:44.850Z,10.00
2023-02-19T17:11:15.053Z,10.00
2023-02-19T17:13:46.267Z,9.90
2023-02-19T17:16:28.504Z,10.00
2023-02-19T17:18:56.087Z,9.90
2023-02-19T17:21:28.763Z,10.00
2023-02-19T17:23:57.089Z,10.00
2023-02-19T17:26:28.042Z,9.90
2023-02-19T17:29:04.397Z,9.80
2023-02-19T17:31:34.663Z,9.80
2023-02-19T17:34:01.959Z,9.80
2023-02-19T17:36:31.259Z,9.90
2023-02-19T17:39:03.825Z,9.90
2023-02-19T17:41:33.430Z,9.80
2023-02-19T17:44:00.673Z,9.80
2023-02-19T17:46:28.119Z,9.70
2023-02-19T17:49:00.059Z,9.70
2023-02-19T17:51:28.008Z,9.80
2023-02-19T17:53:55.306Z,9.80
2023-02-19T17:56:25.635Z,9.80
2023-02-19T17:58:53.661Z,9.90
2023-02-19T18:01:23.918Z,9.90
2023-02-19T18:03:53.726Z,10.00
2023-02-19T18:06:23.208Z,10.00
2023-02-19T18:08:54.841Z,10.00
2023-02-19T18:11:23.668Z,9.90
2023-02-19T18:13:52.328Z,10.00
2023-02-19T18:16:20.075Z,10.10
2023-02-19T18:18:47.480Z,10.10
2023-02-19T18:21:17.247Z,10.10
2023-02-19T18:23:46.872Z,10.20
2023-02-19T18:26:19.814Z,10.30
2023-02-19T18:28:47.140Z,10.40
2023-02-19T18:31:14.709Z,10.40
2023-02-19T18:33:45.151Z,10.30
2023-02-19T18:36:13.003Z,10.10
2023-02-19T18:38:45.676Z,10.10
2023-02-19T18:41:20.262Z,10.20
2023-02-19T18:43:48.313Z,10.20
2023-02-19T18:46:16.116Z,10.20
2023-02-19T18:48:46.702Z,10.10
2023-02-19T18:51:14.098Z,10.20
2023-02-19T18:53:43.276Z,10.10
2023-02-19T18:56:10.541Z,10.10
2023-02-19T18:58:40.357Z,10.10
2023-02-19T19:01:12.739Z,9.80
2023-02-19T19:03:42.497Z,9.90
2023-02-19T19:06:12.381Z,10.00
2023-02-19T19:08:39.645Z,9.90
2023-02-19T19:11:09.317Z,10.00
2023-02-19T19:13:39.042Z,9.90
2023-02-19T19:16:06.545Z,9.90
2023-02-19T19:18:38.079Z,10.00
2023-02-19T19:21:09.681Z,10.10
2023-02-19T19:23:37.088Z,10.10
2023-02-19T19:26:10.679Z,10.10
2023-02-19T19:28:44.510Z,10.10
2023-02-19T19:31:12.678Z,9.90
2023-02-19T19:33:40.639Z,9.70
2023-02-19T19:36:09.185Z,9.70
2023-02-19T19:38:37.004Z,9.70
2023-02-19T19:41:05.825Z,9.80
2023-02-19T19:43:35.785Z,9.70
2023-02-19T19:46:10.050Z,9.60
2023-02-19T19:48:39.837Z,9.60
2023-02-19T19:51:08.129Z,9.60
2023-02-19T19:53:40.583Z,9.50
2023-02-19T19:56:10.801Z,9.40
2023-02-19T19:58:40.514Z,9.50
2023-02-19T20:01:12.454Z,9.50
2023-02-19T20:03:42.816Z,9.60
2023-02-19T20:06:10.088Z,9.50
2023-02-19T20:08:37.322Z,9.60
2023-02-19T20:11:07.277Z,9.50
2023-02-19T20:13:34.574Z,9.50
2023-02-19T20:16:04.338Z,9.60
2023-02-19T20:18:31.573Z,9.50
2023-02-19T20:21:01.444Z,9.50
2023-02-19T20:23:28.716Z,9.50
2023-02-19T20:25:57.852Z,9.50
2023-02-19T20:28:25.140Z,9.50
2023-02-19T20:30:52.425Z,9.60
2023-02-19T20:33:22.208Z,9.50
2023-02-19T20:35:49.470Z,9.30
2023-02-19T20:38:17.240Z,9.10
2023-02-19T20:40:44.529Z,8.90
2023-02-19T20:43:14.111Z,8.80
2023-02-19T20:45:43.082Z,8.90
2023-02-19T20:48:13.253Z,9.00
2023-02-19T20:50:43.062Z,9.10
2023-02-19T20:53:17.282Z,9.00
2023-02-19T20:55:44.659Z,8.80
2023-02-19T20:58:12.011Z,8.70
2023-02-19T21:00:41.441Z,8.70
2023-02-19T21:03:11.717Z,8.70
2023-02-19T21:05:44.210Z,8.70
2023-02-19T21:08:11.825Z,8.70
2023-02-19T21:10:41.440Z,8.60
2023-02-19T21:13:08.698Z,8.60
2023-02-19T21:15:38.184Z,8.60
2023-02-19T21:18:08.004Z,8.70
2023-02-19T21:20:37.474Z,8.70
2023-02-19T21:23:04.797Z,8.60
2023-02-19T21:25:33.178Z,8.50
2023-02-19T21:28:00.499Z,8.40
2023-02-19T21:30:30.218Z,8.40
2023-02-19T21:32:57.623Z,8.40
2023-02-19T21:35:24.866Z,8.20
2023-02-19T21:37:54.333Z,8.10
2023-02-19T21:40:23.388Z,8.10
2023-02-19T21:42:50.663Z,8.10
2023-02-19T21:45:17.942Z,8.30
2023-02-19T21:47:46.715Z,8.20
2023-02-19T21:50:13.983Z,8.20
2023-02-19T21:52:43.685Z,8.10
2023-02-19T21:55:13.278Z,8.10
2023-02-19T21:57:43.472Z,8.10
2023-02-19T22:00:11.308Z,8.10
2023-02-19T22:02:40.918Z,7.90
2023-02-19T22:05:08.312Z,7.80
2023-02-19T22:07:38.194Z,7.80
2023-02-19T22:10:07.898Z,7.80
2023-02-19T22:12:39.623Z,7.70
2023-02-19T22:15:07.198Z,7.80
2023-02-19T22:17:36.828Z,7.80
2023-02-19T22:20:04.917Z,7.70
2023-02-19T22:22:34.611Z,7.60
2023-02-19T22:25:03.966Z,7.70
2023-02-19T22:27:33.681Z,7.60
2023-02-19T22:30:01.022Z,7.60
2023-02-19T22:32:33.160Z,7.60
2023-02-19T22:35:00.498Z,7.50
2023-02-19T22:37:29.700Z,7.60
2023-02-19T22:39:56.911Z,7.50
2023-02-19T22:42:25.285Z,7.50
2023-02-19T22:44:52.589Z,7.50
2023-02-19T22:47:22.100Z,7.60
2023-02-19T22:49:49.370Z,7.50
2023-02-19T22:52:16.673Z,7.50
2023-02-19T22:54:49.712Z,7.50
2023-02-19T22:57:16.953Z,7.40
2023-02-19T22:59:46.751Z,7.50
2023-02-19T23:02:14.036Z,7.50
2023-02-19T23:04:43.463Z,7.50
2023-02-19T23:07:12.947Z,7.50
2023-02-19T23:09:40.235Z,7.40
2023-02-19T23:12:10.525Z,7.30
2023-02-19T23:14:38.269Z,7.40
2023-02-19T23:17:05.571Z,7.30
2023-02-19T23:19:33.018Z,7.30
2023-02-19T23:22:00.419Z,7.30
2023-02-19T23:24:29.862Z,7.30
2023-02-19T23:26:57.677Z,7.30
2023-02-19T23:29:26.676Z,7.30
2023-02-19T23:31:54.709Z,7.30
2023-02-19T23:34:22.989Z,7.30
2023-02-19T23:36:51.060Z,7.30
2023-02-19T23:39:21.439Z,7.30
2023-02-19T23:41:53.976Z,7.30
2023-02-19T23:44:25.012Z,7.30
2023-02-19T23:46:52.816Z,7.30
2023-02-19T23:49:20.535Z,7.20
2023-02-19T23:51:47.944Z,7.10
2023-02-19T23:54:17.677Z,7.10
2023-02-19T23:56:47.372Z,7.20
2023-02-19T23:59:15.504Z,7.10
